Time;durP1;ratioP1;P1;durP2;ratioP2;P2;SDS_P1;SDS_P2;PMS_P1;PMS_P2;Temp;Humidity;BMP_temperature;BMP_pressure;BME280_temperature;BME280_humidity;BME280_pressure;Samples;Min_cycle;Max_cycle;Signal;HPM_P1;HPM_P2
2021/08/05 00:01:51;;;;;;;75.47;43.47;;;16.60;99.90;;;;;;5018854;28;20321;-83
2021/08/05 00:04:18;;;;;;;75.80;44.80;;;16.70;99.90;;;;;;5018264;28;20233;-86
2021/08/05 00:06:45;;;;;;;78.67;44.23;;;16.70;99.90;;;;;;5021953;28;20557;-83
2021/08/05 00:09:12;;;;;;;80.37;45.20;;;16.70;99.90;;;;;;5014463;28;20663;-83
2021/08/05 00:11:39;;;;;;;82.30;46.80;;;16.70;99.90;;;;;;5028747;28;20737;-83
2021/08/05 00:14:06;;;;;;;79.03;44.73;;;16.70;99.90;;;;;;5033822;27;20670;-83
2021/08/05 00:16:35;;;;;;;84.33;46.73;;;16.70;99.90;;;;;;5024656;28;20243;-83
2021/08/05 00:19:02;;;;;;;79.90;46.80;;;16.70;99.90;;;;;;5023345;28;20197;-83
2021/08/05 00:21:29;;;;;;;75.23;45.57;;;16.80;99.90;;;;;;5017969;28;20190;-83
2021/08/05 00:23:56;;;;;;;79.70;46.07;;;16.80;99.90;;;;;;5015542;28;20198;-83
2021/08/05 00:26:23;;;;;;;78.10;45.60;;;16.80;99.90;;;;;;5019455;28;20197;-82
2021/08/05 00:28:50;;;;;;;75.33;44.93;;;16.80;99.90;;;;;;5026132;28;20262;-83
2021/08/05 00:31:17;;;;;;;77.67;45.47;;;16.90;99.90;;;;;;5025298;28;20300;-83
2021/08/05 00:33:45;;;;;;;80.93;46.10;;;16.90;99.90;;;;;;5016917;28;20209;-83
2021/08/05 00:36:12;;;;;;;75.77;46.50;;;16.90;99.90;;;;;;5019819;28;20315;-83
2021/08/05 00:38:39;;;;;;;77.80;45.00;;;16.90;99.90;;;;;;5014463;28;20304;-82
2021/08/05 00:41:06;;;;;;;76.20;47.03;;;17.00;99.90;;;;;;5018963;27;20221;-82
2021/08/05 00:43:35;;;;;;;80.10;48.20;;;17.00;99.90;;;;;;5016418;28;20255;-82
2021/08/05 00:46:02;;;;;;;80.40;47.00;;;17.10;99.90;;;;;;5015632;28;20224;-83
2021/08/05 00:48:29;;;;;;;78.87;47.47;;;17.20;99.90;;;;;;5025640;27;20231;-83
2021/08/05 00:50:59;;;;;;;86.90;50.77;;;17.10;99.90;;;;;;5022491;28;20458;-82
2021/08/05 00:53:27;;;;;;;84.67;50.10;;;17.20;99.90;;;;;;5017565;28;20248;-82
2021/08/05 00:55:54;;;;;;;91.13;52.30;;;17.20;99.90;;;;;;5017790;28;20267;-83
2021/08/05 00:58:21;;;;;;;84.97;48.97;;;17.20;99.90;;;;;;5016214;28;20654;-82
2021/08/05 01:00:51;;;;;;;85.97;50.00;;;17.10;99.90;;;;;;5013615;28;20283;-83
2021/08/05 01:03:26;;;;;;;87.17;48.93;;;17.20;99.90;;;;;;5012310;28;20232;-82
2021/08/05 01:06:05;;;;;;;87.17;50.37;;;17.10;99.90;;;;;;5014355;28;20237;-83
2021/08/05 01:08:34;;;;;;;77.57;46.63;;;17.10;99.90;;;;;;5027961;28;20244;-82
2021/08/05 01:11:10;;;;;;;77.50;46.77;;;17.10;99.90;;;;;;5016626;28;20221;-83
2021/08/05 01:13:41;;;;;;;76.40;43.87;;;16.90;99.90;;;;;;5022181;28;20208;-85
2021/08/05 01:16:13;;;;;;;64.37;39.33;;;16.90;99.90;;;;;;5049869;28;20279;-83
2021/08/05 01:18:41;;;;;;;68.97;40.60;;;16.90;99.90;;;;;;5030201;27;20201;-83
2021/08/05 01:21:16;;;;;;;66.80;39.47;;;16.90;99.90;;;;;;5030381;28;20577;-83
2021/08/05 01:23:50;;;;;;;63.67;39.57;;;16.80;99.90;;;;;;5029937;28;20235;-83
2021/08/05 01:26:24;;;;;;;63.17;39.17;;;16.90;99.90;;;;;;5031597;28;20647;-83
2021/08/05 01:28:53;;;;;;;66.67;39.33;;;17.00;99.90;;;;;;5033434;28;20211;-83
2021/08/05 01:31:23;;;;;;;63.03;40.13;;;17.00;99.90;;;;;;5033747;28;20236;-83
2021/08/05 01:33:51;;;;;;;62.17;37.17;;;17.10;99.90;;;;;;5035908;27;20201;-83
2021/08/05 01:36:21;;;;;;;70.93;41.00;;;17.10;99.90;;;;;;5033361;28;20201;-83
2021/08/05 01:38:50;;;;;;;63.43;38.63;;;17.10;99.90;;;;;;5033233;28;20284;-84
2021/08/05 01:41:18;;;;;;;66.67;41.07;;;17.10;99.90;;;;;;5033494;28;20205;-83
2021/08/05 01:43:46;;;;;;;69.80;43.20;;;17.10;99.90;;;;;;5033438;28;20296;-83
2021/08/05 01:46:15;;;;;;;72.17;43.03;;;17.10;99.90;;;;;;5033685;28;20284;-83
2021/08/05 01:48:42;;;;;;;66.73;40.37;;;17.10;99.90;;;;;;5033754;28;20288;-85
2021/08/05 01:51:10;;;;;;;70.73;42.83;;;17.10;99.90;;;;;;5033165;28;20196;-83
2021/08/05 01:53:40;;;;;;;77.83;45.73;;;17.10;99.90;;;;;;5033588;28;20213;-84
2021/08/05 01:56:07;;;;;;;81.23;46.97;;;17.00;99.90;;;;;;5033287;28;20205;-83
2021/08/05 01:58:34;;;;;;;79.73;45.30;;;17.00;99.90;;;;;;5033222;28;20732;-83
2021/08/05 02:01:01;;;;;;;81.83;46.47;;;17.10;99.90;;;;;;5033510;28;20204;-83
2021/08/05 02:03:30;;;;;;;86.73;48.80;;;17.00;99.90;;;;;;5033241;28;20229;-83
2021/08/05 02:06:05;;;;;;;86.80;48.73;;;17.00;99.90;;;;;;5032929;28;20245;-83
2021/08/05 02:08:41;;;;;;;83.37;47.10;;;17.10;99.90;;;;;;5033243;28;20192;-83
2021/08/05 02:11:09;;;;;;;83.60;48.10;;;17.00;99.90;;;;;;5033151;28;20201;-84
2021/08/05 02:13:40;;;;;;;86.50;48.50;;;17.00;99.90;;;;;;5033861;28;20308;-82
2021/08/05 02:16:09;;;;;;;85.33;48.00;;;17.00;99.90;;;;;;5033478;27;20257;-84
2021/08/05 02:18:43;;;;;;;82.67;47.87;;;17.00;99.90;;;;;;5032945;28;20220;-83
2021/08/05 02:21:11;;;;;;;93.53;50.67;;;17.10;99.90;;;;;;5033676;27;20645;-84
2021/08/05 02:23:40;;;;;;;84.37;49.90;;;17.10;99.90;;;;;;5034349;28;20205;-84
2021/08/05 02:26:08;;;;;;;87.10;50.30;;;17.20;99.90;;;;;;5034294;28;20213;-83
2021/08/05 02:28:35;;;;;;;91.73;49.80;;;17.20;99.90;;;;;;5023461;28;20679;-83
2021/08/05 02:31:03;;;;;;;89.57;51.77;;;17.20;99.90;;;;;;5033921;28;20241;-83
2021/08/05 02:33:32;;;;;;;88.87;51.37;;;17.10;99.90;;;;;;5034393;28;20626;-84
2021/08/05 02:36:01;;;;;;;81.43;49.83;;;17.10;99.90;;;;;;5034662;28;20197;-83
2021/08/05 02:38:28;;;;;;;77.30;45.97;;;17.00;99.90;;;;;;5032991;28;20300;-84
2021/08/05 02:40:56;;;;;;;87.50;48.93;;;17.10;99.90;;;;;;5025782;28;20244;-83
2021/08/05 02:43:27;;;;;;;85.50;48.00;;;17.20;99.90;;;;;;5028467;28;20201;-83
2021/08/05 02:45:55;;;;;;;77.90;48.10;;;17.20;99.90;;;;;;5033796;28;20232;-84
2021/08/05 02:48:23;;;;;;;79.73;47.07;;;17.20;99.90;;;;;;5039248;28;20264;-83
2021/08/05 02:50:50;;;;;;;80.37;48.37;;;17.20;99.90;;;;;;5054433;28;20185;-82
2021/08/05 02:53:19;;;;;;;81.17;47.63;;;17.20;99.90;;;;;;5055469;28;20197;-82
2021/08/05 02:55:48;;;;;;;79.97;47.47;;;17.20;99.90;;;;;;5043027;28;20216;-83
2021/08/05 02:58:16;;;;;;;81.77;47.57;;;17.10;99.90;;;;;;5031903;28;20308;-84
2021/08/05 03:00:44;;;;;;;85.07;50.53;;;17.00;99.90;;;;;;5032418;28;20256;-83
2021/08/05 03:03:12;;;;;;;85.23;50.80;;;17.00;99.90;;;;;;5032157;28;20292;-83
2021/08/05 03:05:40;;;;;;;94.77;51.83;;;17.00;99.90;;;;;;5032245;28;20205;-84
2021/08/05 03:08:08;;;;;;;100.50;53.87;;;17.10;99.90;;;;;;5032337;28;20241;-84
2021/08/05 03:10:36;;;;;;;100.43;54.77;;;17.10;99.90;;;;;;5032330;28;20585;-83
2021/08/05 03:13:04;;;;;;;94.97;53.40;;;17.10;99.90;;;;;;5032298;28;20196;-83
2021/08/05 03:15:31;;;;;;;104.67;55.07;;;17.10;99.90;;;;;;5031865;28;20197;-83
2021/08/05 03:17:58;;;;;;;101.77;56.77;;;17.20;99.90;;;;;;5031900;28;20312;-84
2021/08/05 03:20:25;;;;;;;101.30;54.30;;;17.20;99.90;;;;;;5031974;28;20288;-85
2021/08/05 03:22:52;;;;;;;92.77;54.87;;;17.20;99.90;;;;;;5032137;28;20217;-84
2021/08/05 03:25:19;;;;;;;96.93;54.63;;;17.10;99.90;;;;;;5031878;28;20253;-83
2021/08/05 03:27:47;;;;;;;95.33;54.03;;;17.00;99.90;;;;;;5031725;28;20224;-83
2021/08/05 03:30:15;;;;;;;94.60;54.53;;;17.00;99.90;;;;;;5031794;28;20218;-83
2021/08/05 03:32:41;;;;;;;99.37;54.93;;;17.10;99.90;;;;;;5032044;28;20241;-82
2021/08/05 03:35:09;;;;;;;102.60;56.17;;;17.20;99.90;;;;;;5032798;27;20289;-82
2021/08/05 03:37:36;;;;;;;99.27;55.40;;;17.20;99.90;;;;;;5032384;28;20309;-83
2021/08/05 03:40:04;;;;;;;99.03;54.93;;;17.20;99.90;;;;;;5032434;28;20572;-83
2021/08/05 03:42:31;;;;;;;105.90;57.10;;;17.10;99.90;;;;;;5032886;28;20197;-83
2021/08/05 03:45:00;;;;;;;107.03;56.30;;;17.10;99.90;;;;;;5032771;28;20212;-83
2021/08/05 03:47:27;;;;;;;100.30;55.83;;;17.10;99.90;;;;;;5032539;27;20225;-83
2021/08/05 03:49:54;;;;;;;104.63;54.73;;;17.10;99.90;;;;;;5032470;28;20657;-84
2021/08/05 03:52:21;;;;;;;97.77;54.33;;;17.20;99.90;;;;;;5018587;27;20197;-85
2021/08/05 03:54:48;;;;;;;93.37;51.93;;;17.10;99.90;;;;;;5033075;27;20257;-84
2021/08/05 03:57:15;;;;;;;98.13;54.77;;;17.10;99.90;;;;;;5033360;28;20240;-83
2021/08/05 03:59:42;;;;;;;100.47;55.57;;;17.10;99.90;;;;;;5032384;28;20239;-83
2021/08/05 04:02:10;;;;;;;105.13;56.63;;;17.10;99.90;;;;;;5047107;28;20192;-83
2021/08/05 04:04:37;;;;;;;95.60;53.43;;;17.00;99.90;;;;;;5049163;28;20226;-82
2021/08/05 04:07:05;;;;;;;100.97;53.57;;;17.00;99.90;;;;;;5057454;27;20201;-82
2021/08/05 04:09:32;;;;;;;102.57;55.47;;;17.00;99.90;;;;;;5054250;27;20209;-82
2021/08/05 04:11:59;;;;;;;108.70;56.50;;;17.00;99.90;;;;;;5053711;28;20205;-81
2021/08/05 04:14:26;;;;;;;101.13;56.83;;;17.00;99.90;;;;;;5054016;28;20234;-82
2021/08/05 04:16:53;;;;;;;99.17;53.53;;;17.10;99.90;;;;;;5053681;28;20207;-84
2021/08/05 04:19:26;;;;;;;105.23;55.67;;;17.10;99.90;;;;;;5054658;28;20192;-81
2021/08/05 04:21:53;;;;;;;98.80;54.47;;;17.10;99.90;;;;;;5054077;28;20209;-81
2021/08/05 04:24:20;;;;;;;108.97;56.93;;;17.10;99.90;;;;;;5053936;28;20197;-82
2021/08/05 04:26:47;;;;;;;104.87;56.97;;;17.20;99.90;;;;;;5042076;28;20269;-84
2021/08/05 04:29:14;;;;;;;110.77;56.03;;;17.30;99.90;;;;;;5032992;28;20332;-83
2021/08/05 04:31:41;;;;;;;102.93;53.93;;;17.40;99.90;;;;;;5032124;28;20209;-83
2021/08/05 04:34:08;;;;;;;108.90;55.70;;;17.30;99.90;;;;;;5032309;28;20284;-84
2021/08/05 04:36:36;;;;;;;104.57;54.33;;;17.30;99.90;;;;;;5039567;28;20562;-83
2021/08/05 04:39:03;;;;;;;110.80;57.93;;;17.30;99.90;;;;;;5038377;28;20228;-83
2021/08/05 04:41:30;;;;;;;103.13;55.87;;;17.30;99.90;;;;;;5031495;28;20673;-85
2021/08/05 04:43:58;;;;;;;100.03;52.53;;;17.40;99.90;;;;;;5025506;28;20240;-83
2021/08/05 04:46:25;;;;;;;100.37;53.83;;;17.30;99.90;;;;;;5023023;28;20532;-83
2021/08/05 04:48:52;;;;;;;98.43;52.90;;;17.30;99.90;;;;;;5031360;28;20216;-82
2021/08/05 04:51:19;;;;;;;94.20;52.27;;;17.30;99.90;;;;;;5031111;28;20595;-83
2021/08/05 04:53:47;;;;;;;88.23;50.33;;;17.20;99.90;;;;;;5030852;28;20229;-83
2021/08/05 04:56:14;;;;;;;93.77;51.33;;;17.30;99.90;;;;;;5030866;28;20321;-84
2021/08/05 04:58:41;;;;;;;91.47;50.33;;;17.40;99.90;;;;;;5030127;28;20259;-84
2021/08/05 05:01:08;;;;;;;87.13;49.60;;;17.40;99.90;;;;;;5030660;28;20527;-83
2021/08/05 05:03:36;;;;;;;83.67;48.50;;;17.40;99.90;;;;;;5030586;28;20208;-83
2021/08/05 05:06:03;;;;;;;86.10;48.30;;;17.40;99.90;;;;;;5030312;27;20246;-83
2021/08/05 05:08:30;;;;;;;82.50;49.43;;;17.50;99.90;;;;;;5030391;28;20236;-82
2021/08/05 05:10:58;;;;;;;79.33;46.67;;;17.60;99.90;;;;;;5030192;28;20249;-83
2021/08/05 05:13:26;;;;;;;85.60;46.47;;;17.60;99.90;;;;;;5030689;28;20197;-82
2021/08/05 05:15:53;;;;;;;74.23;43.77;;;17.50;99.90;;;;;;5030300;28;20250;-83
2021/08/05 05:18:22;;;;;;;80.70;45.77;;;17.50;99.90;;;;;;5030378;28;20297;-83
2021/08/05 05:20:50;;;;;;;77.57;44.83;;;17.50;99.90;;;;;;5030195;28;20201;-83
2021/08/05 05:23:17;;;;;;;81.23;47.73;;;17.60;99.90;;;;;;5030099;27;20284;-84
2021/08/05 05:25:46;;;;;;;74.90;45.27;;;17.60;99.90;;;;;;5030400;28;20197;-85
2021/08/05 05:28:14;;;;;;;85.90;49.67;;;17.60;99.90;;;;;;5030066;28;20276;-83
2021/08/05 05:30:42;;;;;;;81.33;48.47;;;17.40;99.90;;;;;;5030617;27;20234;-83
2021/08/05 05:33:10;;;;;;;78.83;46.70;;;17.40;99.90;;;;;;5038105;28;20297;-83
2021/08/05 05:35:38;;;;;;;72.50;45.53;;;17.60;99.90;;;;;;5029440;27;20193;-83
2021/08/05 05:38:06;;;;;;;66.30;45.57;;;18.00;99.90;;;;;;5031731;28;20248;-83
2021/08/05 05:40:32;;;;;;;64.20;45.00;;;18.90;99.90;;;;;;5018087;28;20193;-83
2021/08/05 05:43:01;;;;;;;61.77;43.37;;;20.10;99.90;;;;;;5030689;28;20232;-84
2021/08/05 05:45:31;;;;;;;54.03;41.90;;;21.30;99.90;;;;;;5032343;28;20205;-84
2021/08/05 05:48:00;;;;;;;52.33;38.72;;;22.50;99.90;;;;;;5030732;28;20201;-83
2021/08/05 05:50:28;;;;;;;52.10;38.92;;;23.60;99.90;;;;;;5031805;28;20200;-82
2021/08/05 05:52:57;;;;;;;46.67;37.88;;;24.50;99.90;;;;;;5065639;28;20221;-83
2021/08/05 05:55:24;;;;;;;49.05;39.78;;;25.20;99.90;;;;;;5044962;27;20657;-84
2021/08/05 05:57:51;;;;;;;49.20;39.13;;;25.30;99.90;;;;;;5030946;28;20249;-83
2021/08/05 06:00:19;;;;;;;51.50;39.47;;;25.90;99.90;;;;;;5031635;28;20221;-83
2021/08/05 06:02:47;;;;;;;46.97;38.00;;;26.70;99.90;;;;;;5035202;27;20205;-84
2021/08/05 06:05:14;;;;;;;45.90;36.72;;;27.40;99.90;;;;;;5038798;28;20254;-83
2021/08/05 06:07:47;;;;;;;47.38;38.47;;;27.80;99.90;;;;;;5029396;28;20307;-83
2021/08/05 06:10:15;;;;;;;46.55;38.53;;;28.00;99.90;;;;;;5069799;28;20212;-84
2021/08/05 06:12:42;;;;;;;48.05;40.60;;;27.60;99.90;;;;;;5031426;27;20549;-83
2021/08/05 06:15:11;;;;;;;45.97;38.38;;;27.20;99.90;;;;;;5033496;28;20224;-82
2021/08/05 06:17:40;;;;;;;48.72;38.83;;;27.10;99.90;;;;;;5032709;28;20606;-83
2021/08/05 06:20:11;;;;;;;47.30;40.38;;;27.00;99.90;;;;;;5026869;28;20205;-83
2021/08/05 06:22:39;;;;;;;47.35;39.55;;;26.80;99.90;;;;;;5047527;27;20232;-83
2021/08/05 06:25:08;;;;;;;49.13;40.08;;;26.70;99.90;;;;;;5034671;28;20201;-84
2021/08/05 06:27:35;;;;;;;48.22;38.45;;;26.30;99.90;;;;;;5032757;28;20647;-83
2021/08/05 06:30:02;;;;;;;45.80;37.38;;;25.90;99.90;;;;;;5036028;28;20232;-83
2021/08/05 06:32:29;;;;;;;48.15;39.47;;;24.20;99.90;;;;;;5054017;27;20201;-83
2021/08/05 06:34:56;;;;;;;47.67;38.58;;;23.80;99.90;;;;;;5069444;27;20197;-83
2021/08/05 06:37:24;;;;;;;52.75;39.08;;;23.20;99.90;;;;;;5054087;27;20292;-83
2021/08/05 06:39:53;;;;;;;47.10;38.15;;;23.30;99.90;;;;;;5057107;27;20311;-84
2021/08/05 06:42:20;;;;;;;50.85;37.38;;;23.40;99.90;;;;;;5054767;27;20535;-83
2021/08/05 06:44:47;;;;;;;46.40;37.63;;;23.70;99.90;;;;;;5045292;27;20205;-84
2021/08/05 06:47:14;;;;;;;49.03;38.10;;;23.30;99.90;;;;;;5068423;27;20209;-84
2021/08/05 06:49:42;;;;;;;50.95;39.22;;;23.40;99.90;;;;;;5049756;27;20580;-83
2021/08/05 06:52:09;;;;;;;49.17;38.00;;;23.70;99.90;;;;;;5038521;27;20193;-83
2021/08/05 06:54:37;;;;;;;48.15;37.95;;;23.70;99.90;;;;;;5034043;28;20557;-84
2021/08/05 06:57:04;;;;;;;50.80;39.42;;;23.90;99.90;;;;;;5035854;28;20225;-82
2021/08/05 06:59:31;;;;;;;47.40;36.92;;;24.00;99.90;;;;;;5031359;27;20259;-84
2021/08/05 07:01:59;;;;;;;41.55;35.13;;;24.30;99.90;;;;;;5031804;28;20208;-83
2021/08/05 07:04:26;;;;;;;43.97;34.63;;;24.50;99.90;;;;;;5031917;28;20294;-82
2021/08/05 07:06:53;;;;;;;46.38;35.75;;;24.60;99.90;;;;;;5042115;28;20199;-83
2021/08/05 07:09:20;;;;;;;46.45;36.05;;;24.40;99.90;;;;;;5031873;28;20193;-85
2021/08/05 07:11:49;;;;;;;46.92;37.38;;;24.50;99.90;;;;;;5032290;28;20665;-85
2021/08/05 07:14:16;;;;;;;44.47;37.15;;;24.60;99.90;;;;;;5032142;28;20232;-85
2021/08/05 07:16:42;;;;;;;45.05;36.15;;;24.90;99.90;;;;;;5054751;27;20287;-83
2021/08/05 07:19:09;;;;;;;47.35;36.10;;;25.00;99.90;;;;;;5104571;27;20244;-84
2021/08/05 07:21:36;;;;;;;43.03;35.75;;;25.20;99.90;;;;;;5037135;28;20288;-85
2021/08/05 07:24:04;;;;;;;42.20;35.67;;;25.20;99.90;;;;;;5035638;28;20288;-84
2021/08/05 07:26:31;;;;;;;48.65;36.55;;;25.10;99.90;;;;;;5041941;28;20192;-84
2021/08/05 07:28:59;;;;;;;45.88;37.72;;;25.00;99.90;;;;;;5037218;28;20246;-85
2021/08/05 07:31:26;;;;;;;50.08;40.05;;;24.40;99.90;;;;;;5034321;27;20201;-81
2021/08/05 07:33:54;;;;;;;46.47;38.35;;;24.00;99.90;;;;;;5034976;28;20240;-83
2021/08/05 07:36:23;;;;;;;54.30;41.15;;;23.50;99.90;;;;;;5033346;28;20193;-84
2021/08/05 07:38:50;;;;;;;51.03;39.22;;;23.00;99.90;;;;;;5030976;28;20308;-85
2021/08/05 07:41:17;;;;;;;51.20;39.97;;;22.70;99.90;;;;;;5038449;28;20207;-83
2021/08/05 07:43:44;;;;;;;53.65;40.70;;;22.50;99.90;;;;;;5034812;28;20207;-84
2021/08/05 07:46:13;;;;;;;52.97;41.17;;;22.10;99.90;;;;;;5039999;27;20256;-82
2021/08/05 07:48:40;;;;;;;54.53;40.90;;;22.00;99.90;;;;;;5039027;28;20253;-85
2021/08/05 07:51:07;;;;;;;49.33;39.28;;;22.30;99.90;;;;;;5026216;28;20627;-80
2021/08/05 07:53:34;;;;;;;51.35;39.45;;;22.60;99.90;;;;;;5036545;28;20553;-81
2021/08/05 07:56:07;;;;;;;49.92;38.67;;;22.90;99.90;;;;;;5029431;28;20288;-85
2021/08/05 07:58:37;;;;;;;49.88;38.63;;;23.20;99.90;;;;;;5016230;28;20225;-84
2021/08/05 08:01:04;;;;;;;48.13;37.05;;;23.60;99.90;;;;;;5026025;28;20214;-86
2021/08/05 08:03:34;;;;;;;44.53;36.28;;;24.30;99.90;;;;;;5017606;28;20595;-85
2021/08/05 08:06:01;;;;;;;46.63;35.10;;;25.80;99.90;;;;;;5035064;28;20220;-84
2021/08/05 08:08:28;;;;;;;43.35;35.22;;;27.60;99.90;;;;;;5020237;28;20202;-83
2021/08/05 08:10:55;;;;;;;36.65;32.05;;;29.50;99.90;;;;;;5020600;28;20229;-84
2021/08/05 08:13:22;;;;;;;39.05;32.95;;;31.50;99.90;;;;;;5060251;27;20207;-83
2021/08/05 08:15:49;;;;;;;33.20;29.58;;;32.90;99.90;;;;;;5051215;27;20193;-85
2021/08/05 08:18:16;;;;;;;34.13;29.85;;;34.00;99.90;;;;;;5020129;28;20259;-82
2021/08/05 08:20:45;;;;;;;33.13;29.58;;;34.80;99.90;;;;;;5027762;27;20213;-84
2021/08/05 08:23:12;;;;;;;33.25;28.42;;;35.00;99.90;;;;;;5019740;28;20205;-83
2021/08/05 08:25:39;;;;;;;28.70;25.70;;;35.30;99.90;;;;;;5033749;28;20256;-83
2021/08/05 08:28:07;;;;;;;26.45;23.70;;;35.80;99.90;;;;;;5032401;27;20276;-82
2021/08/05 08:30:34;;;;;;;29.27;26.17;;;36.60;99.90;;;;;;5036098;28;20203;-83
2021/08/05 08:33:01;;;;;;;34.53;28.95;;;37.20;99.90;;;;;;5051406;27;20231;-82
2021/08/05 08:35:28;;;;;;;31.27;27.10;;;37.50;99.90;;;;;;5032787;27;20197;-83
2021/08/05 08:37:57;;;;;;;29.50;26.35;;;37.40;99.90;;;;;;5049545;27;20307;-83
2021/08/05 08:40:25;;;;;;;32.95;28.65;;;37.50;99.80;;;;;;5048238;27;20585;-82
2021/08/05 08:42:51;;;;;;;32.47;29.13;;;37.60;99.90;;;;;;5035051;28;20288;-84
2021/08/05 08:45:18;;;;;;;26.83;23.70;;;38.30;99.90;;;;;;5041405;27;20209;-83
2021/08/05 08:47:48;;;;;;;22.70;20.25;;;38.70;98.70;;;;;;5029227;28;20201;-85
2021/08/05 08:50:16;;;;;;;22.85;20.20;;;38.30;96.90;;;;;;5044887;27;20197;-82
2021/08/05 08:52:46;;;;;;;24.13;21.70;;;37.00;96.10;;;;;;5055959;27;20277;-83
2021/08/05 08:55:16;;;;;;;24.92;22.30;;;35.10;97.50;;;;;;5031122;27;20292;-82
2021/08/05 08:57:43;;;;;;;31.90;28.48;;;33.60;99.90;;;;;;5064679;27;20253;-82
2021/08/05 09:00:12;;;;;;;37.20;28.95;;;32.40;99.90;;;;;;5052424;27;20414;-83
2021/08/05 09:02:39;;;;;;;31.80;27.08;;;31.10;99.90;;;;;;5026211;28;20288;-82
2021/08/05 09:05:08;;;;;;;36.00;26.98;;;30.20;99.90;;;;;;5031610;28;20207;-82
2021/08/05 09:07:35;;;;;;;30.08;26.85;;;29.00;99.90;;;;;;5022992;27;20201;-82
2021/08/05 09:10:01;;;;;;;30.23;25.90;;;28.30;99.90;;;;;;5024703;28;20287;-82
2021/08/05 09:12:31;;;;;;;30.02;24.92;;;27.50;99.90;;;;;;5024637;28;20601;-84
2021/08/05 09:14:58;;;;;;;28.83;23.45;;;27.20;99.90;;;;;;5029072;28;20224;-82
2021/08/05 09:17:27;;;;;;;27.25;24.30;;;26.80;99.90;;;;;;5028614;28;20225;-81
2021/08/05 09:19:58;;;;;;;24.23;20.35;;;26.60;99.90;;;;;;5056773;28;20370;-81
2021/08/05 09:22:38;;;;;;;23.15;18.15;;;26.50;99.90;;;;;;5028671;28;20224;-81
2021/08/05 09:25:23;;;;;;;24.40;18.33;;;26.30;99.90;;;;;;5029773;28;20283;-81
2021/08/05 09:27:53;;;;;;;21.60;18.23;;;26.10;99.90;;;;;;5030194;27;20288;-81
2021/08/05 09:30:34;;;;;;;18.52;15.57;;;26.00;99.90;;;;;;5029743;28;20228;-82
2021/08/05 09:33:07;;;;;;;17.92;15.35;;;25.90;99.90;;;;;;5030186;28;20284;-82
2021/08/05 09:35:34;;;;;;;16.58;14.27;;;25.90;99.90;;;;;;5030153;28;20220;-82
2021/08/05 09:38:22;;;;;;;16.20;12.35;;;25.90;99.90;;;;;;5029685;28;20280;-82
2021/08/05 09:40:51;;;;;;;17.45;14.20;;;25.90;99.90;;;;;;5029856;28;20221;-81
2021/08/05 09:43:27;;;;;;;14.75;12.05;;;25.80;99.90;;;;;;5029871;28;20200;-82
2021/08/05 09:45:55;;;;;;;17.58;13.00;;;25.80;99.90;;;;;;5029850;28;20189;-81
2021/08/05 09:48:34;;;;;;;19.20;13.85;;;25.80;99.90;;;;;;5032654;28;20271;-81
2021/08/05 09:51:05;;;;;;;18.15;13.55;;;25.80;99.90;;;;;;5033538;28;20201;-82
2021/08/05 09:53:32;;;;;;;16.40;13.32;;;25.90;99.90;;;;;;5033111;28;20235;-81
2021/08/05 09:56:09;;;;;;;19.02;15.82;;;26.00;99.90;;;;;;5033240;28;20328;-81
2021/08/05 09:58:39;;;;;;;19.60;16.13;;;26.00;99.90;;;;;;5033613;28;20201;-82
2021/08/05 10:01:09;;;;;;;18.98;15.55;;;26.00;99.90;;;;;;5032470;28;20220;-81
2021/08/05 10:03:39;;;;;;;18.60;16.13;;;26.10;99.90;;;;;;5032869;28;20217;-81
2021/08/05 10:06:07;;;;;;;17.45;15.32;;;25.40;99.90;;;;;;5033258;28;20199;-81
2021/08/05 10:08:35;;;;;;;20.48;15.60;;;25.50;99.90;;;;;;5032920;28;20531;-82
2021/08/05 10:11:02;;;;;;;19.77;15.57;;;25.30;99.90;;;;;;5033099;28;20642;-82
2021/08/05 10:13:30;;;;;;;19.13;15.35;;;25.40;99.90;;;;;;5033251;28;20276;-82
2021/08/05 10:15:59;;;;;;;19.67;16.15;;;24.90;99.90;;;;;;5032672;28;20204;-81
2021/08/05 10:18:29;;;;;;;18.35;15.98;;;24.70;99.90;;;;;;5032485;28;20220;-82
2021/08/05 10:20:57;;;;;;;19.50;15.63;;;24.30;99.90;;;;;;5032517;28;20297;-82
2021/08/05 10:23:26;;;;;;;19.17;14.65;;;24.30;99.90;;;;;;5032774;28;20254;-82
2021/08/05 10:25:55;;;;;;;17.98;14.75;;;24.30;99.90;;;;;;5032646;28;20207;-81
2021/08/05 10:28:22;;;;;;;22.77;16.33;;;23.70;99.90;;;;;;5032355;28;20592;-81
2021/08/05 10:30:51;;;;;;;20.30;15.20;;;23.90;99.90;;;;;;5032558;28;20232;-83
2021/08/05 10:33:20;;;;;;;19.65;14.55;;;24.20;99.90;;;;;;5032630;28;20185;-81
2021/08/05 10:35:49;;;;;;;18.50;15.10;;;24.80;99.90;;;;;;5032454;28;20603;-81
2021/08/05 10:38:17;;;;;;;22.83;16.77;;;25.90;99.90;;;;;;5032421;28;20642;-81
2021/08/05 10:40:44;;;;;;;24.48;18.10;;;26.50;99.90;;;;;;5032414;28;20743;-80
2021/08/05 10:43:13;;;;;;;22.65;16.15;;;26.90;99.90;;;;;;5032792;28;20207;-81
2021/08/05 10:45:40;;;;;;;23.85;17.85;;;25.80;99.90;;;;;;5032594;28;20626;-81
2021/08/05 10:48:08;;;;;;;20.42;15.65;;;25.50;99.90;;;;;;5032377;28;20224;-82
2021/08/05 10:50:41;;;;;;;20.52;16.00;;;25.60;99.90;;;;;;5032469;28;20284;-81
2021/08/05 10:53:13;;;;;;;18.85;15.35;;;26.10;99.90;;;;;;5032344;28;20205;-80
2021/08/05 10:55:42;;;;;;;20.52;15.68;;;26.40;99.90;;;;;;5032546;28;20639;-80
2021/08/05 10:58:20;;;;;;;18.63;14.55;;;27.10;99.90;;;;;;5032024;28;20224;-81
2021/08/05 11:01:01;;;;;;;19.58;15.45;;;27.70;99.90;;;;;;5031839;28;20689;-81
2021/08/05 11:03:52;;;;;;;20.52;14.63;;;28.10;99.90;;;;;;5031953;28;20215;-81
2021/08/05 11:06:35;;;;;;;14.90;13.40;;;27.60;99.90;;;;;;5041367;28;20197;-81
2021/08/05 11:09:28;;;;;;;19.00;14.13;;;27.30;99.90;;;;;;5031930;28;20220;-80
2021/08/05 11:11:56;;;;;;;15.90;13.02;;;26.40;99.90;;;;;;5032164;28;20189;-82
2021/08/05 11:14:41;;;;;;;17.33;13.93;;;25.30;99.90;;;;;;5030816;28;20254;-81
2021/08/05 11:17:08;;;;;;;16.10;12.90;;;24.40;99.90;;;;;;5031787;28;20256;-81
2021/08/05 11:19:38;;;;;;;17.30;11.60;;;24.60;99.90;;;;;;5031035;28;20611;-81
2021/08/05 11:22:49;;;;;;;18.42;15.07;;;25.30;99.90;;;;;;5031792;28;20531;-81
2021/08/05 11:25:17;;;;;;;15.45;13.25;;;25.80;99.90;;;;;;5032041;28;20232;-81
2021/08/05 11:28:21;;;;;;;17.77;14.00;;;26.10;99.90;;;;;;5031913;28;20196;-82
2021/08/05 11:30:50;;;;;;;15.57;12.60;;;25.30;99.90;;;;;;5031487;28;20287;-81
2021/08/05 11:33:49;;;;;;;15.65;12.68;;;25.50;99.90;;;;;;5031719;28;20197;-80
2021/08/05 11:36:32;;;;;;;19.20;13.85;;;25.80;99.90;;;;;;5031843;28;20235;-82
2021/08/05 11:39:08;;;;;;;16.20;13.57;;;25.50;99.90;;;;;;5031495;28;20370;-81
2021/08/05 11:41:50;;;;;;;20.33;15.85;;;25.20;99.90;;;;;;5031324;28;20263;-81
2021/08/05 11:44:22;;;;;;;17.40;14.45;;;24.90;99.90;;;;;;5031698;28;20201;-81
2021/08/05 11:47:12;;;;;;;14.77;13.00;;;24.80;99.90;;;;;;5031488;28;20689;-82
2021/08/05 11:49:41;;;;;;;15.40;12.60;;;24.70;99.90;;;;;;5031492;28;20228;-81
2021/08/05 11:52:09;;;;;;;14.55;11.73;;;24.90;99.90;;;;;;5031610;28;20196;-81
2021/08/05 11:54:37;;;;;;;13.30;9.88;;;25.00;99.90;;;;;;5031341;28;20288;-81
2021/08/05 11:57:08;;;;;;;14.13;10.50;;;25.10;99.90;;;;;;5031269;28;20215;-82
2021/08/05 11:59:36;;;;;;;14.48;11.98;;;25.40;99.90;;;;;;5031141;28;20205;-81
2021/08/05 12:02:05;;;;;;;15.93;11.35;;;25.80;99.90;;;;;;5031127;28;20189;-80
2021/08/05 12:04:32;;;;;;;11.93;9.63;;;25.90;99.90;;;;;;5031128;28;20243;-80
2021/08/05 12:07:34;;;;;;;13.25;9.45;;;25.80;99.90;;;;;;5031467;27;20266;-82
2021/08/05 12:10:09;;;;;;;12.85;10.38;;;25.80;99.90;;;;;;4969322;28;20199;-80
2021/08/05 12:12:40;;;;;;;11.60;9.23;;;25.50;99.90;;;;;;4970248;28;20621;-81
2021/08/05 12:15:09;;;;;;;11.23;8.57;;;25.60;99.90;;;;;;5002535;28;20197;-82
2021/08/05 12:17:43;;;;;;;10.05;8.52;;;25.70;99.90;;;;;;5031021;28;20197;-83
2021/08/05 12:20:13;;;;;;;17.60;9.82;;;26.00;99.90;;;;;;5031656;28;20208;-83
2021/08/05 12:22:43;;;;;;;11.68;10.00;;;26.40;99.90;;;;;;5031965;27;20253;-80
2021/08/05 12:25:25;;;;;;;12.25;8.68;;;26.40;99.90;;;;;;5032112;28;20259;-81
2021/08/05 12:27:59;;;;;;;9.75;8.35;;;26.60;99.90;;;;;;5032214;27;20254;-83
2021/08/05 12:30:38;;;;;;;9.45;6.50;;;27.50;99.90;;;;;;5031778;27;20288;-80
2021/08/05 12:33:09;;;;;;;6.60;5.22;;;29.10;99.90;;;;;;5031032;28;20579;-81
2021/08/05 12:35:37;;;;;;;7.35;5.20;;;30.60;99.90;;;;;;5032334;28;20257;-83
2021/08/05 12:38:06;;;;;;;7.35;5.30;;;31.40;99.90;;;;;;5031882;28;20246;-81